sensor_id;sensor_type;location;lat;lon;timestamp;P1;durP1;ratioP1;P2;durP2;ratioP2
51244;SDS011;37840;47.562;18.738;2024-03-02T00:01:14;18.45;;;13.23;;
51244;SDS011;37840;47.562;18.738;2024-03-02T00:03:41;20.58;;;13.88;;
51244;SDS011;37840;47.562;18.738;2024-03-02T00:06:08;18.60;;;13.40;;
51244;SDS011;37840;47.562;18.738;2024-03-02T00:08:35;18.35;;;13.38;;
51244;SDS011;37840;47.562;18.738;2024-03-02T00:11:01;16.98;;;12.75;;
51244;SDS011;37840;47.562;18.738;2024-03-02T00:13:31;21.55;;;13.43;;
51244;SDS011;37840;47.562;18.738;2024-03-02T00:15:57;20.55;;;14.02;;
51244;SDS011;37840;47.562;18.738;2024-03-02T00:18:25;19.30;;;13.38;;
51244;SDS011;37840;47.562;18.738;2024-03-02T00:20:53;18.90;;;13.57;;
51244;SDS011;37840;47.562;18.738;2024-03-02T00:23:21;20.67;;;14.77;;
51244;SDS011;37840;47.562;18.738;2024-03-02T00:25:48;20.05;;;13.80;;
51244;SDS011;37840;47.562;18.738;2024-03-02T00:33:25;21.67;;;15.02;;
51244;SDS011;37840;47.562;18.738;2024-03-02T00:35:52;20.65;;;14.60;;
51244;SDS011;37840;47.562;18.738;2024-03-02T00:38:18;24.02;;;16.00;;
51244;SDS011;37840;47.562;18.738;2024-03-02T00:40:45;22.48;;;15.73;;
51244;SDS011;37840;47.562;18.738;2024-03-02T00:45:49;20.35;;;15.25;;
51244;SDS011;37840;47.562;18.738;2024-03-02T00:48:15;23.05;;;15.75;;
51244;SDS011;37840;47.562;18.738;2024-03-02T00:50:42;22.92;;;14.73;;
51244;SDS011;37840;47.562;18.738;2024-03-02T00:53:11;22.23;;;15.15;;
51244;SDS011;37840;47.562;18.738;2024-03-02T00:55:38;22.30;;;15.45;;
51244;SDS011;37840;47.562;18.738;2024-03-02T00:58:09;24.52;;;16.42;;
51244;SDS011;37840;47.562;18.738;2024-03-02T01:00:35;22.67;;;15.60;;
51244;SDS011;37840;47.562;18.738;2024-03-02T01:03:01;25.70;;;15.90;;
51244;SDS011;37840;47.562;18.738;2024-03-02T01:05:27;21.80;;;16.20;;
51244;SDS011;37840;47.562;18.738;2024-03-02T01:07:53;25.20;;;15.95;;
51244;SDS011;37840;47.562;18.738;2024-03-02T01:10:19;20.73;;;15.90;;
51244;SDS011;37840;47.562;18.738;2024-03-02T01:12:45;27.08;;;17.35;;
51244;SDS011;37840;47.562;18.738;2024-03-02T01:15:11;28.62;;;18.55;;
51244;SDS011;37840;47.562;18.738;2024-03-02T01:17:37;27.60;;;17.02;;
51244;SDS011;37840;47.562;18.738;2024-03-02T01:20:03;24.30;;;16.33;;
51244;SDS011;37840;47.562;18.738;2024-03-02T01:22:30;33.00;;;17.67;;
51244;SDS011;37840;47.562;18.738;2024-03-02T01:24:56;27.42;;;17.08;;
51244;SDS011;37840;47.562;18.738;2024-03-02T01:27:21;23.52;;;15.75;;
51244;SDS011;37840;47.562;18.738;2024-03-02T01:29:47;25.50;;;16.73;;
51244;SDS011;37840;47.562;18.738;2024-03-02T01:32:13;23.30;;;15.52;;
51244;SDS011;37840;47.562;18.738;2024-03-02T01:34:39;29.12;;;16.73;;
51244;SDS011;37840;47.562;18.738;2024-03-02T01:37:05;21.80;;;16.02;;
51244;SDS011;37840;47.562;18.738;2024-03-02T01:39:31;25.77;;;16.50;;
51244;SDS011;37840;47.562;18.738;2024-03-02T01:41:57;23.17;;;16.02;;
51244;SDS011;37840;47.562;18.738;2024-03-02T01:44:23;22.70;;;16.50;;
51244;SDS011;37840;47.562;18.738;2024-03-02T01:46:49;42.53;;;18.80;;
51244;SDS011;37840;47.562;18.738;2024-03-02T01:49:16;21.95;;;15.52;;
51244;SDS011;37840;47.562;18.738;2024-03-02T01:51:42;27.60;;;16.55;;
51244;SDS011;37840;47.562;18.738;2024-03-02T01:54:08;25.08;;;16.65;;
51244;SDS011;37840;47.562;18.738;2024-03-02T01:56:33;22.40;;;15.75;;
51244;SDS011;37840;47.562;18.738;2024-03-02T01:58:59;22.25;;;15.90;;
51244;SDS011;37840;47.562;18.738;2024-03-02T02:01:26;23.75;;;15.43;;
51244;SDS011;37840;47.562;18.738;2024-03-02T02:03:52;24.37;;;14.65;;
51244;SDS011;37840;47.562;18.738;2024-03-02T02:06:18;22.08;;;15.75;;
51244;SDS011;37840;47.562;18.738;2024-03-02T02:08:44;20.83;;;15.32;;
51244;SDS011;37840;47.562;18.738;2024-03-02T02:11:10;22.80;;;16.27;;
51244;SDS011;37840;47.562;18.738;2024-03-02T02:13:39;25.80;;;16.52;;
51244;SDS011;37840;47.562;18.738;2024-03-02T02:16:06;24.40;;;15.50;;
51244;SDS011;37840;47.562;18.738;2024-03-02T02:18:32;24.70;;;16.42;;
51244;SDS011;37840;47.562;18.738;2024-03-02T02:20:58;20.95;;;16.00;;
51244;SDS011;37840;47.562;18.738;2024-03-02T02:23:24;23.30;;;16.40;;
51244;SDS011;37840;47.562;18.738;2024-03-02T02:25:50;24.55;;;16.73;;
51244;SDS011;37840;47.562;18.738;2024-03-02T02:28:16;22.15;;;16.33;;
51244;SDS011;37840;47.562;18.738;2024-03-02T02:30:42;26.42;;;17.30;;
51244;SDS011;37840;47.562;18.738;2024-03-02T02:33:08;27.60;;;17.90;;
51244;SDS011;37840;47.562;18.738;2024-03-02T02:35:34;28.27;;;19.48;;
51244;SDS011;37840;47.562;18.738;2024-03-02T02:38:00;26.23;;;17.65;;
51244;SDS011;37840;47.562;18.738;2024-03-02T02:40:28;27.75;;;17.55;;
51244;SDS011;37840;47.562;18.738;2024-03-02T02:42:57;26.98;;;17.27;;
51244;SDS011;37840;47.562;18.738;2024-03-02T02:45:24;26.12;;;19.00;;
51244;SDS011;37840;47.562;18.738;2024-03-02T02:47:50;24.60;;;17.60;;
51244;SDS011;37840;47.562;18.738;2024-03-02T02:50:16;24.77;;;17.12;;
51244;SDS011;37840;47.562;18.738;2024-03-02T02:52:43;26.33;;;17.80;;
51244;SDS011;37840;47.562;18.738;2024-03-02T02:55:09;27.40;;;18.00;;
51244;SDS011;37840;47.562;18.738;2024-03-02T02:57:36;26.23;;;17.75;;
51244;SDS011;37840;47.562;18.738;2024-03-02T03:00:05;27.50;;;17.40;;
51244;SDS011;37840;47.562;18.738;2024-03-02T03:05:08;24.37;;;16.42;;
51244;SDS011;37840;47.562;18.738;2024-03-02T03:10:02;24.67;;;16.48;;
51244;SDS011;37840;47.562;18.738;2024-03-02T03:12:30;23.83;;;15.98;;
51244;SDS011;37840;47.562;18.738;2024-03-02T03:14:56;25.33;;;17.52;;
51244;SDS011;37840;47.562;18.738;2024-03-02T03:17:22;24.65;;;16.27;;
51244;SDS011;37840;47.562;18.738;2024-03-02T03:19:49;25.75;;;16.55;;
51244;SDS011;37840;47.562;18.738;2024-03-02T03:22:16;28.40;;;17.35;;
51244;SDS011;37840;47.562;18.738;2024-03-02T03:24:42;26.08;;;16.27;;
51244;SDS011;37840;47.562;18.738;2024-03-02T03:27:09;23.23;;;15.80;;
51244;SDS011;37840;47.562;18.738;2024-03-02T03:29:36;21.52;;;16.27;;
51244;SDS011;37840;47.562;18.738;2024-03-02T03:32:02;24.67;;;16.27;;
51244;SDS011;37840;47.562;18.738;2024-03-02T03:34:28;26.12;;;17.08;;
51244;SDS011;37840;47.562;18.738;2024-03-02T03:36:54;25.10;;;16.67;;
51244;SDS011;37840;47.562;18.738;2024-03-02T03:39:20;25.08;;;16.02;;
51244;SDS011;37840;47.562;18.738;2024-03-02T03:41:46;21.92;;;15.38;;
51244;SDS011;37840;47.562;18.738;2024-03-02T03:44:12;23.85;;;15.80;;
51244;SDS011;37840;47.562;18.738;2024-03-02T03:46:38;21.37;;;15.25;;
51244;SDS011;37840;47.562;18.738;2024-03-02T03:49:04;24.00;;;16.02;;
51244;SDS011;37840;47.562;18.738;2024-03-02T03:51:30;25.08;;;16.05;;
51244;SDS011;37840;47.562;18.738;2024-03-02T03:53:56;24.02;;;15.20;;
51244;SDS011;37840;47.562;18.738;2024-03-02T03:56:22;22.65;;;15.60;;
51244;SDS011;37840;47.562;18.738;2024-03-02T03:58:48;24.58;;;15.07;;
51244;SDS011;37840;47.562;18.738;2024-03-02T04:01:14;23.38;;;15.23;;
51244;SDS011;37840;47.562;18.738;2024-03-02T04:03:40;21.45;;;15.57;;
51244;SDS011;37840;47.562;18.738;2024-03-02T04:06:06;25.45;;;15.18;;
51244;SDS011;37840;47.562;18.738;2024-03-02T04:08:31;24.70;;;15.07;;
51244;SDS011;37840;47.562;18.738;2024-03-02T04:10:57;21.77;;;15.13;;
51244;SDS011;37840;47.562;18.738;2024-03-02T04:13:23;21.17;;;15.27;;
51244;SDS011;37840;47.562;18.738;2024-03-02T04:15:49;22.37;;;15.60;;
51244;SDS011;37840;47.562;18.738;2024-03-02T04:18:15;21.17;;;15.15;;
51244;SDS011;37840;47.562;18.738;2024-03-02T04:20:41;21.40;;;14.87;;
51244;SDS011;37840;47.562;18.738;2024-03-02T04:23:07;21.83;;;14.45;;
51244;SDS011;37840;47.562;18.738;2024-03-02T04:25:33;24.02;;;15.38;;
51244;SDS011;37840;47.562;18.738;2024-03-02T04:27:59;21.67;;;14.82;;
51244;SDS011;37840;47.562;18.738;2024-03-02T04:30:25;23.30;;;15.70;;
51244;SDS011;37840;47.562;18.738;2024-03-02T04:32:51;21.83;;;13.90;;
51244;SDS011;37840;47.562;18.738;2024-03-02T04:35:17;23.20;;;14.68;;
51244;SDS011;37840;47.562;18.738;2024-03-02T04:37:43;23.23;;;15.10;;
51244;SDS011;37840;47.562;18.738;2024-03-02T04:40:10;23.77;;;15.40;;
51244;SDS011;37840;47.562;18.738;2024-03-02T04:42:36;23.17;;;15.27;;
51244;SDS011;37840;47.562;18.738;2024-03-02T04:45:04;23.33;;;15.05;;
51244;SDS011;37840;47.562;18.738;2024-03-02T04:47:30;24.20;;;17.00;;
51244;SDS011;37840;47.562;18.738;2024-03-02T04:49:56;24.17;;;15.60;;
51244;SDS011;37840;47.562;18.738;2024-03-02T04:52:22;26.55;;;17.27;;
51244;SDS011;37840;47.562;18.738;2024-03-02T04:54:48;24.37;;;15.57;;
51244;SDS011;37840;47.562;18.738;2024-03-02T04:57:32;26.48;;;16.70;;
51244;SDS011;37840;47.562;18.738;2024-03-02T04:59:58;26.58;;;17.65;;
51244;SDS011;37840;47.562;18.738;2024-03-02T05:02:24;23.83;;;16.40;;
51244;SDS011;37840;47.562;18.738;2024-03-02T05:04:50;26.73;;;16.75;;
51244;SDS011;37840;47.562;18.738;2024-03-02T05:07:16;26.85;;;17.42;;
51244;SDS011;37840;47.562;18.738;2024-03-02T05:09:42;27.13;;;16.27;;
51244;SDS011;37840;47.562;18.738;2024-03-02T05:12:08;26.42;;;16.95;;
51244;SDS011;37840;47.562;18.738;2024-03-02T05:14:54;25.20;;;17.08;;
51244;SDS011;37840;47.562;18.738;2024-03-02T05:17:21;28.17;;;18.23;;
51244;SDS011;37840;47.562;18.738;2024-03-02T05:19:47;29.40;;;19.25;;
51244;SDS011;37840;47.562;18.738;2024-03-02T05:22:13;29.35;;;18.27;;
51244;SDS011;37840;47.562;18.738;2024-03-02T05:24:39;29.87;;;18.08;;
51244;SDS011;37840;47.562;18.738;2024-03-02T05:27:05;29.35;;;18.45;;
51244;SDS011;37840;47.562;18.738;2024-03-02T05:29:32;27.77;;;18.10;;
51244;SDS011;37840;47.562;18.738;2024-03-02T05:31:58;27.92;;;18.65;;
51244;SDS011;37840;47.562;18.738;2024-03-02T05:34:24;26.70;;;17.85;;
51244;SDS011;37840;47.562;18.738;2024-03-02T05:36:50;29.12;;;18.05;;
51244;SDS011;37840;47.562;18.738;2024-03-02T05:39:16;29.75;;;18.85;;
51244;SDS011;37840;47.562;18.738;2024-03-02T05:41:42;34.38;;;19.12;;
51244;SDS011;37840;47.562;18.738;2024-03-02T05:44:08;26.95;;;17.17;;
51244;SDS011;37840;47.562;18.738;2024-03-02T05:46:34;27.80;;;18.00;;
51244;SDS011;37840;47.562;18.738;2024-03-02T05:49:00;27.92;;;18.17;;
51244;SDS011;37840;47.562;18.738;2024-03-02T05:51:26;29.27;;;17.25;;
51244;SDS011;37840;47.562;18.738;2024-03-02T05:53:52;26.52;;;17.95;;
51244;SDS011;37840;47.562;18.738;2024-03-02T05:56:18;28.00;;;17.48;;
51244;SDS011;37840;47.562;18.738;2024-03-02T05:58:44;29.95;;;18.87;;
51244;SDS011;37840;47.562;18.738;2024-03-02T06:01:33;23.92;;;16.10;;
51244;SDS011;37840;47.562;18.738;2024-03-02T06:03:59;25.60;;;16.48;;
51244;SDS011;37840;47.562;18.738;2024-03-02T06:06:25;27.55;;;17.48;;
51244;SDS011;37840;47.562;18.738;2024-03-02T06:08:52;27.27;;;17.40;;
51244;SDS011;37840;47.562;18.738;2024-03-02T06:11:21;25.20;;;16.90;;
51244;SDS011;37840;47.562;18.738;2024-03-02T06:13:47;25.33;;;16.90;;
51244;SDS011;37840;47.562;18.738;2024-03-02T06:16:13;25.15;;;16.30;;
51244;SDS011;37840;47.562;18.738;2024-03-02T06:18:39;25.75;;;17.25;;
51244;SDS011;37840;47.562;18.738;2024-03-02T06:21:05;25.02;;;17.15;;
51244;SDS011;37840;47.562;18.738;2024-03-02T06:23:31;29.23;;;16.95;;
51244;SDS011;37840;47.562;18.738;2024-03-02T06:25:57;25.33;;;17.62;;
51244;SDS011;37840;47.562;18.738;2024-03-02T06:28:23;30.25;;;18.83;;
51244;SDS011;37840;47.562;18.738;2024-03-02T06:30:49;26.42;;;17.52;;
51244;SDS011;37840;47.562;18.738;2024-03-02T06:33:15;25.95;;;16.62;;
51244;SDS011;37840;47.562;18.738;2024-03-02T06:35:41;29.08;;;19.37;;
51244;SDS011;37840;47.562;18.738;2024-03-02T06:38:07;26.92;;;17.67;;
51244;SDS011;37840;47.562;18.738;2024-03-02T06:40:33;27.25;;;18.37;;
51244;SDS011;37840;47.562;18.738;2024-03-02T06:42:59;26.58;;;18.48;;
51244;SDS011;37840;47.562;18.738;2024-03-02T06:45:25;28.55;;;18.23;;
51244;SDS011;37840;47.562;18.738;2024-03-02T06:47:51;28.55;;;19.10;;
51244;SDS011;37840;47.562;18.738;2024-03-02T06:50:17;26.17;;;17.67;;
51244;SDS011;37840;47.562;18.738;2024-03-02T06:52:43;26.73;;;17.92;;
51244;SDS011;37840;47.562;18.738;2024-03-02T06:55:09;25.60;;;17.55;;
51244;SDS011;37840;47.562;18.738;2024-03-02T06:57:35;29.05;;;18.00;;
51244;SDS011;37840;47.562;18.738;2024-03-02T07:00:01;26.85;;;18.25;;
51244;SDS011;37840;47.562;18.738;2024-03-02T07:02:30;28.98;;;18.52;;
51244;SDS011;37840;47.562;18.738;2024-03-02T07:04:56;25.48;;;16.77;;
51244;SDS011;37840;47.562;18.738;2024-03-02T07:07:22;27.00;;;17.40;;
51244;SDS011;37840;47.562;18.738;2024-03-02T07:09:48;31.60;;;17.40;;
51244;SDS011;37840;47.562;18.738;2024-03-02T07:12:14;27.42;;;17.90;;
51244;SDS011;37840;47.562;18.738;2024-03-02T07:14:40;28.10;;;17.73;;
51244;SDS011;37840;47.562;18.738;2024-03-02T07:17:36;27.08;;;18.23;;
51244;SDS011;37840;47.562;18.738;2024-03-02T07:20:03;24.00;;;16.17;;
51244;SDS011;37840;47.562;18.738;2024-03-02T07:22:29;25.02;;;17.27;;
51244;SDS011;37840;47.562;18.738;2024-03-02T07:24:55;23.67;;;17.10;;
51244;SDS011;37840;47.562;18.738;2024-03-02T07:27:21;24.50;;;17.45;;
51244;SDS011;37840;47.562;18.738;2024-03-02T07:29:47;25.40;;;16.58;;
51244;SDS011;37840;47.562;18.738;2024-03-02T07:32:13;26.70;;;16.67;;
51244;SDS011;37840;47.562;18.738;2024-03-02T07:34:39;26.65;;;17.02;;
51244;SDS011;37840;47.562;18.738;2024-03-02T07:37:05;24.75;;;16.55;;
51244;SDS011;37840;47.562;18.738;2024-03-02T07:39:31;26.17;;;16.80;;
51244;SDS011;37840;47.562;18.738;2024-03-02T07:41:57;26.48;;;16.02;;
51244;SDS011;37840;47.562;18.738;2024-03-02T07:44:23;24.90;;;16.75;;
51244;SDS011;37840;47.562;18.738;2024-03-02T07:46:49;28.27;;;17.05;;
51244;SDS011;37840;47.562;18.738;2024-03-02T07:49:16;25.27;;;16.92;;
51244;SDS011;37840;47.562;18.738;2024-03-02T07:51:42;27.13;;;16.37;;
51244;SDS011;37840;47.562;18.738;2024-03-02T07:54:08;25.83;;;17.35;;
51244;SDS011;37840;47.562;18.738;2024-03-02T07:56:34;24.92;;;16.95;;
51244;SDS011;37840;47.562;18.738;2024-03-02T07:59:01;25.45;;;16.73;;
51244;SDS011;37840;47.562;18.738;2024-03-02T08:01:27;24.52;;;15.30;;
51244;SDS011;37840;47.562;18.738;2024-03-02T08:03:56;25.12;;;17.62;;
51244;SDS011;37840;47.562;18.738;2024-03-02T08:06:27;26.50;;;17.00;;
51244;SDS011;37840;47.562;18.738;2024-03-02T08:08:57;24.83;;;16.90;;
51244;SDS011;37840;47.562;18.738;2024-03-02T08:11:24;23.10;;;16.45;;
51244;SDS011;37840;47.562;18.738;2024-03-02T08:13:50;28.45;;;16.83;;
51244;SDS011;37840;47.562;18.738;2024-03-02T08:16:17;25.52;;;17.65;;
51244;SDS011;37840;47.562;18.738;2024-03-02T08:18:47;23.60;;;16.40;;
51244;SDS011;37840;47.562;18.738;2024-03-02T08:21:14;24.05;;;17.08;;
51244;SDS011;37840;47.562;18.738;2024-03-02T08:23:40;26.60;;;17.52;;
51244;SDS011;37840;47.562;18.738;2024-03-02T08:26:08;25.48;;;18.20;;
51244;SDS011;37840;47.562;18.738;2024-03-02T08:28:34;24.00;;;16.75;;
51244;SDS011;37840;47.562;18.738;2024-03-02T08:31:05;25.00;;;17.33;;
51244;SDS011;37840;47.562;18.738;2024-03-02T08:33:31;23.70;;;17.55;;
51244;SDS011;37840;47.562;18.738;2024-03-02T08:35:57;25.05;;;16.45;;
51244;SDS011;37840;47.562;18.738;2024-03-02T08:38:25;24.85;;;16.17;;
51244;SDS011;37840;47.562;18.738;2024-03-02T08:40:51;24.02;;;16.30;;
51244;SDS011;37840;47.562;18.738;2024-03-02T08:43:17;23.58;;;17.00;;
51244;SDS011;37840;47.562;18.738;2024-03-02T08:45:43;25.45;;;16.17;;
51244;SDS011;37840;47.562;18.738;2024-03-02T08:48:10;23.48;;;16.30;;
51244;SDS011;37840;47.562;18.738;2024-03-02T08:50:36;23.60;;;15.45;;
51244;SDS011;37840;47.562;18.738;2024-03-02T08:53:05;23.52;;;16.23;;
51244;SDS011;37840;47.562;18.738;2024-03-02T08:55:31;22.13;;;15.25;;
51244;SDS011;37840;47.562;18.738;2024-03-02T08:57:57;24.05;;;16.98;;
51244;SDS011;37840;47.562;18.738;2024-03-02T09:00:23;23.40;;;16.90;;
51244;SDS011;37840;47.562;18.738;2024-03-02T09:02:50;27.08;;;17.77;;
51244;SDS011;37840;47.562;18.738;2024-03-02T09:05:16;22.95;;;15.70;;
51244;SDS011;37840;47.562;18.738;2024-03-02T09:07:42;19.58;;;13.88;;
51244;SDS011;37840;47.562;18.738;2024-03-02T09:10:08;21.75;;;15.52;;
51244;SDS011;37840;47.562;18.738;2024-03-02T09:12:37;22.42;;;16.40;;
51244;SDS011;37840;47.562;18.738;2024-03-02T09:15:04;21.65;;;15.77;;
51244;SDS011;37840;47.562;18.738;2024-03-02T09:17:31;26.37;;;16.58;;
51244;SDS011;37840;47.562;18.738;2024-03-02T09:19:57;23.20;;;16.80;;
51244;SDS011;37840;47.562;18.738;2024-03-02T09:22:23;23.83;;;17.25;;
51244;SDS011;37840;47.562;18.738;2024-03-02T09:24:52;26.02;;;17.25;;
51244;SDS011;37840;47.562;18.738;2024-03-02T09:27:18;25.10;;;16.45;;
51244;SDS011;37840;47.562;18.738;2024-03-02T09:29:43;22.52;;;16.50;;
51244;SDS011;37840;47.562;18.738;2024-03-02T09:32:12;22.90;;;15.40;;
51244;SDS011;37840;47.562;18.738;2024-03-02T09:34:39;22.62;;;16.15;;
51244;SDS011;37840;47.562;18.738;2024-03-02T09:37:06;23.80;;;17.08;;
51244;SDS011;37840;47.562;18.738;2024-03-02T09:39:32;24.40;;;16.50;;
51244;SDS011;37840;47.562;18.738;2024-03-02T09:41:58;22.17;;;15.50;;
51244;SDS011;37840;47.562;18.738;2024-03-02T09:44:25;21.65;;;15.75;;
51244;SDS011;37840;47.562;18.738;2024-03-02T09:46:51;23.52;;;15.85;;
51244;SDS011;37840;47.562;18.738;2024-03-02T09:49:18;20.67;;;14.93;;
51244;SDS011;37840;47.562;18.738;2024-03-02T09:51:47;21.50;;;15.10;;
51244;SDS011;37840;47.562;18.738;2024-03-02T09:54:17;22.10;;;15.55;;
51244;SDS011;37840;47.562;18.738;2024-03-02T09:56:46;22.52;;;15.15;;
51244;SDS011;37840;47.562;18.738;2024-03-02T09:59:12;20.80;;;14.23;;
51244;SDS011;37840;47.562;18.738;2024-03-02T10:01:55;21.30;;;14.57;;
51244;SDS011;37840;47.562;18.738;2024-03-02T10:04:25;20.90;;;15.95;;
51244;SDS011;37840;47.562;18.738;2024-03-02T10:07:04;21.87;;;14.35;;
51244;SDS011;37840;47.562;18.738;2024-03-02T10:09:38;21.58;;;14.70;;
51244;SDS011;37840;47.562;18.738;2024-03-02T10:12:05;17.62;;;14.27;;
51244;SDS011;37840;47.562;18.738;2024-03-02T10:14:33;22.70;;;14.82;;
51244;SDS011;37840;47.562;18.738;2024-03-02T10:17:05;21.77;;;14.87;;
51244;SDS011;37840;47.562;18.738;2024-03-02T10:19:33;20.60;;;14.45;;
51244;SDS011;37840;47.562;18.738;2024-03-02T10:22:01;22.52;;;15.00;;
51244;SDS011;37840;47.562;18.738;2024-03-02T10:24:34;23.55;;;15.63;;
51244;SDS011;37840;47.562;18.738;2024-03-02T10:27:08;23.40;;;16.10;;
51244;SDS011;37840;47.562;18.738;2024-03-02T10:29:38;25.83;;;16.10;;
51244;SDS011;37840;47.562;18.738;2024-03-02T10:32:08;23.48;;;15.38;;
51244;SDS011;37840;47.562;18.738;2024-03-02T10:34:35;25.15;;;16.70;;
51244;SDS011;37840;47.562;18.738;2024-03-02T10:37:01;25.33;;;17.70;;
51244;SDS011;37840;47.562;18.738;2024-03-02T10:39:27;25.73;;;16.15;;
51244;SDS011;37840;47.562;18.738;2024-03-02T10:41:57;22.48;;;14.23;;
51244;SDS011;37840;47.562;18.738;2024-03-02T10:44:24;22.73;;;14.93;;
51244;SDS011;37840;47.562;18.738;2024-03-02T10:46:54;22.20;;;14.40;;
51244;SDS011;37840;47.562;18.738;2024-03-02T10:49:22;22.33;;;15.60;;
51244;SDS011;37840;47.562;18.738;2024-03-02T10:51:51;22.03;;;14.73;;
51244;SDS011;37840;47.562;18.738;2024-03-02T10:54:17;19.83;;;13.88;;
51244;SDS011;37840;47.562;18.738;2024-03-02T10:56:44;22.45;;;14.40;;
51244;SDS011;37840;47.562;18.738;2024-03-02T10:59:27;20.77;;;14.23;;
51244;SDS011;37840;47.562;18.738;2024-03-02T11:01:58;23.60;;;14.40;;
51244;SDS011;37840;47.562;18.738;2024-03-02T11:04:29;21.17;;;14.43;;
51244;SDS011;37840;47.562;18.738;2024-03-02T11:07:00;19.17;;;13.50;;
51244;SDS011;37840;47.562;18.738;2024-03-02T11:09:29;20.15;;;14.38;;
51244;SDS011;37840;47.562;18.738;2024-03-02T11:14:37;20.30;;;13.27;;
51244;SDS011;37840;47.562;18.738;2024-03-02T11:19:34;20.55;;;13.85;;
51244;SDS011;37840;47.562;18.738;2024-03-02T11:22:03;21.90;;;14.50;;
51244;SDS011;37840;47.562;18.738;2024-03-02T11:24:30;18.65;;;13.55;;
51244;SDS011;37840;47.562;18.738;2024-03-02T11:27:03;21.37;;;14.00;;
51244;SDS011;37840;47.562;18.738;2024-03-02T11:32:22;21.77;;;13.82;;
51244;SDS011;37840;47.562;18.738;2024-03-02T11:34:51;18.10;;;12.52;;
51244;SDS011;37840;47.562;18.738;2024-03-02T11:37:20;17.90;;;12.07;;
51244;SDS011;37840;47.562;18.738;2024-03-02T11:39:49;17.55;;;11.82;;
51244;SDS011;37840;47.562;18.738;2024-03-02T11:42:16;19.52;;;13.25;;
51244;SDS011;37840;47.562;18.738;2024-03-02T11:44:43;15.00;;;11.07;;
51244;SDS011;37840;47.562;18.738;2024-03-02T11:47:12;16.35;;;11.20;;
51244;SDS011;37840;47.562;18.738;2024-03-02T11:52:15;16.58;;;11.20;;
51244;SDS011;37840;47.562;18.738;2024-03-02T11:54:46;16.08;;;11.45;;
51244;SDS011;37840;47.562;18.738;2024-03-02T11:57:14;13.80;;;10.55;;
51244;SDS011;37840;47.562;18.738;2024-03-02T11:59:42;14.43;;;11.02;;
51244;SDS011;37840;47.562;18.738;2024-03-02T12:02:14;13.88;;;10.95;;
51244;SDS011;37840;47.562;18.738;2024-03-02T12:04:47;14.65;;;10.68;;
51244;SDS011;37840;47.562;18.738;2024-03-02T12:07:20;14.95;;;9.85;;
51244;SDS011;37840;47.562;18.738;2024-03-02T12:09:50;13.13;;;10.20;;
51244;SDS011;37840;47.562;18.738;2024-03-02T12:12:25;13.30;;;9.80;;
51244;SDS011;37840;47.562;18.738;2024-03-02T12:14:52;12.45;;;9.40;;
51244;SDS011;37840;47.562;18.738;2024-03-02T12:17:22;12.27;;;9.35;;
51244;SDS011;37840;47.562;18.738;2024-03-02T12:19:48;12.27;;;9.80;;
51244;SDS011;37840;47.562;18.738;2024-03-02T12:22:15;12.85;;;9.38;;
51244;SDS011;37840;47.562;18.738;2024-03-02T12:24:41;11.65;;;9.07;;
51244;SDS011;37840;47.562;18.738;2024-03-02T12:27:11;10.45;;;8.35;;
51244;SDS011;37840;47.562;18.738;2024-03-02T12:29:37;11.93;;;8.25;;
51244;SDS011;37840;47.562;18.738;2024-03-02T12:32:04;11.00;;;8.45;;
51244;SDS011;37840;47.562;18.738;2024-03-02T12:34:31;9.43;;;7.70;;
51244;SDS011;37840;47.562;18.738;2024-03-02T12:36:57;10.82;;;8.90;;
51244;SDS011;37840;47.562;18.738;2024-03-02T12:39:23;8.85;;;7.53;;
51244;SDS011;37840;47.562;18.738;2024-03-02T12:41:50;7.60;;;6.78;;
51244;SDS011;37840;47.562;18.738;2024-03-02T12:44:16;10.05;;;6.55;;
51244;SDS011;37840;47.562;18.738;2024-03-02T12:46:43;9.75;;;6.68;;
51244;SDS011;37840;47.562;18.738;2024-03-02T12:49:11;10.00;;;6.95;;
51244;SDS011;37840;47.562;18.738;2024-03-02T12:51:40;8.05;;;7.10;;
51244;SDS011;37840;47.562;18.738;2024-03-02T12:54:10;7.85;;;6.45;;
51244;SDS011;37840;47.562;18.738;2024-03-02T12:56:37;7.90;;;7.10;;
51244;SDS011;37840;47.562;18.738;2024-03-02T12:59:03;7.57;;;6.40;;
51244;SDS011;37840;47.562;18.738;2024-03-02T13:01:30;6.97;;;6.22;;
51244;SDS011;37840;47.562;18.738;2024-03-02T13:03:57;7.72;;;6.45;;
51244;SDS011;37840;47.562;18.738;2024-03-02T13:06:24;6.72;;;6.03;;
51244;SDS011;37840;47.562;18.738;2024-03-02T13:08:53;7.18;;;6.25;;
51244;SDS011;37840;47.562;18.738;2024-03-02T13:11:21;7.45;;;5.97;;
51244;SDS011;37840;47.562;18.738;2024-03-02T13:13:51;10.20;;;7.90;;
51244;SDS011;37840;47.562;18.738;2024-03-02T13:16:17;9.77;;;7.80;;
51244;SDS011;37840;47.562;18.738;2024-03-02T13:18:44;9.45;;;7.78;;
51244;SDS011;37840;47.562;18.738;2024-03-02T13:21:10;9.93;;;7.70;;
51244;SDS011;37840;47.562;18.738;2024-03-02T13:23:36;10.45;;;7.65;;
51244;SDS011;37840;47.562;18.738;2024-03-02T13:26:02;9.40;;;7.95;;
51244;SDS011;37840;47.562;18.738;2024-03-02T13:28:29;10.15;;;7.72;;
51244;SDS011;37840;47.562;18.738;2024-03-02T13:30:55;11.45;;;8.73;;
51244;SDS011;37840;47.562;18.738;2024-03-02T13:33:21;11.05;;;8.50;;
51244;SDS011;37840;47.562;18.738;2024-03-02T13:35:50;10.05;;;8.10;;
51244;SDS011;37840;47.562;18.738;2024-03-02T13:38:20;9.65;;;7.90;;
51244;SDS011;37840;47.562;18.738;2024-03-02T13:40:46;11.90;;;9.38;;
51244;SDS011;37840;47.562;18.738;2024-03-02T13:43:17;9.63;;;8.20;;
51244;SDS011;37840;47.562;18.738;2024-03-02T13:45:46;11.27;;;8.95;;
51244;SDS011;37840;47.562;18.738;2024-03-02T13:48:13;10.52;;;8.45;;
51244;SDS011;37840;47.562;18.738;2024-03-02T13:50:40;9.98;;;8.98;;
51244;SDS011;37840;47.562;18.738;2024-03-02T13:53:06;11.10;;;8.35;;
51244;SDS011;37840;47.562;18.738;2024-03-02T13:55:33;11.50;;;9.02;;
51244;SDS011;37840;47.562;18.738;2024-03-02T13:57:59;26.20;;;12.85;;
51244;SDS011;37840;47.562;18.738;2024-03-02T14:00:25;16.73;;;11.65;;
51244;SDS011;37840;47.562;18.738;2024-03-02T14:02:51;15.50;;;11.70;;
51244;SDS011;37840;47.562;18.738;2024-03-02T14:05:17;15.13;;;12.40;;
51244;SDS011;37840;47.562;18.738;2024-03-02T14:07:44;17.00;;;12.23;;
51244;SDS011;37840;47.562;18.738;2024-03-02T14:10:10;16.37;;;11.90;;
51244;SDS011;37840;47.562;18.738;2024-03-02T14:12:37;17.33;;;12.05;;
51244;SDS011;37840;47.562;18.738;2024-03-02T14:15:03;21.95;;;11.93;;
51244;SDS011;37840;47.562;18.738;2024-03-02T14:17:29;21.83;;;11.55;;
51244;SDS011;37840;47.562;18.738;2024-03-02T14:19:57;19.05;;;12.05;;
51244;SDS011;37840;47.562;18.738;2024-03-02T14:22:24;17.35;;;11.70;;
51244;SDS011;37840;47.562;18.738;2024-03-02T14:24:51;19.65;;;11.77;;
51244;SDS011;37840;47.562;18.738;2024-03-02T14:27:16;35.95;;;12.50;;
51244;SDS011;37840;47.562;18.738;2024-03-02T14:29:43;16.65;;;11.55;;
51244;SDS011;37840;47.562;18.738;2024-03-02T14:32:09;17.65;;;12.75;;
51244;SDS011;37840;47.562;18.738;2024-03-02T14:34:35;18.40;;;11.57;;